createdAt,value
2018-01-28T00:00:35.417Z,17.30
2018-01-28T00:01:35.387Z,16.30
2018-01-28T00:02:35.390Z,16.40
2018-01-28T00:03:35.372Z,15.50
2018-01-28T00:04:35.354Z,15.70
2018-01-28T00:05:35.367Z,15.50
2018-01-28T00:06:35.332Z,14.00
2018-01-28T00:07:35.321Z,15.60
2018-01-28T00:08:35.327Z,17.50
2018-01-28T00:09:35.307Z,16.80
2018-01-28T00:10:35.287Z,16.10
2018-01-28T00:11:35.280Z,19.00
2018-01-28T00:12:35.271Z,17.10
2018-01-28T00:13:35.256Z,16.70
2018-01-28T00:14:35.250Z,18.60
2018-01-28T00:15:35.229Z,19.70
2018-01-28T00:16:35.222Z,16.00
2018-01-28T00:17:35.219Z,16.30
2018-01-28T00:18:35.193Z,17.60
2018-01-28T00:19:35.191Z,17.50
2018-01-28T00:20:35.182Z,16.00
2018-01-28T00:21:35.164Z,17.40
2018-01-28T00:22:35.149Z,15.50
2018-01-28T00:23:35.141Z,18.10
2018-01-28T00:24:35.125Z,19.70
2018-01-28T00:25:35.133Z,16.80
2018-01-28T00:26:35.118Z,17.60
2018-01-28T00:27:35.096Z,18.80
2018-01-28T00:28:35.079Z,18.70
2018-01-28T00:29:35.071Z,20.50
2018-01-28T00:30:35.060Z,17.20
2018-01-28T00:31:35.062Z,17.90
2018-01-28T00:32:35.036Z,19.20
2018-01-28T00:33:35.029Z,18.20
2018-01-28T00:34:35.017Z,19.40
2018-01-28T00:35:35.001Z,15.40
2018-01-28T00:36:35.014Z,15.90
2018-01-28T00:37:34.985Z,16.30
2018-01-28T00:38:34.965Z,15.40
2018-01-28T00:39:34.977Z,15.20
2018-01-28T00:40:34.946Z,15.20
2018-01-28T00:41:34.933Z,15.70
2018-01-28T00:42:34.948Z,16.40
2018-01-28T00:43:34.906Z,15.40
2018-01-28T00:44:34.925Z,16.70
2018-01-28T00:45:34.886Z,18.40
2018-01-28T00:46:34.878Z,16.30
2018-01-28T00:47:34.863Z,16.80
2018-01-28T00:48:34.857Z,16.00
2018-01-28T00:49:34.869Z,15.50
2018-01-28T00:50:34.842Z,16.90
2018-01-28T00:51:34.827Z,15.70
2018-01-28T00:52:34.804Z,16.40
2018-01-28T00:53:34.811Z,17.40
2018-01-28T00:54:34.793Z,17.50
2018-01-28T00:55:34.782Z,15.50
2018-01-28T00:56:34.773Z,16.90
2018-01-28T00:57:34.759Z,15.40
2018-01-28T00:58:34.739Z,14.20
2018-01-28T00:59:34.754Z,16.80
2018-01-28T01:00:34.713Z,15.00
2018-01-28T01:01:34.706Z,15.50
2018-01-28T01:02:34.699Z,16.40
2018-01-28T01:03:34.692Z,14.80
2018-01-28T01:04:34.668Z,16.00
2018-01-28T01:05:34.679Z,12.90
2018-01-28T01:06:34.651Z,15.60
2018-01-28T01:07:34.658Z,13.90
2018-01-28T01:08:34.625Z,14.80
2018-01-28T01:09:34.617Z,13.10
2018-01-28T01:10:34.603Z,14.40
2018-01-28T01:11:34.609Z,14.00
2018-01-28T01:12:34.580Z,13.20
2018-01-28T01:13:34.581Z,14.50
2018-01-28T01:14:34.557Z,15.70
2018-01-28T01:15:34.568Z,15.10
2018-01-28T01:16:34.540Z,17.00
2018-01-28T01:17:34.534Z,14.40
2018-01-28T01:18:34.516Z,14.10
2018-01-28T01:19:34.501Z,14.60
2018-01-28T01:20:34.492Z,15.40
2018-01-28T01:21:34.481Z,14.90
2018-01-28T01:22:34.488Z,13.60
2018-01-28T01:23:34.454Z,16.10
2018-01-28T01:24:34.517Z,17.50
2018-01-28T01:25:34.435Z,17.60
2018-01-28T01:26:34.418Z,18.90
2018-01-28T01:27:34.422Z,16.90
2018-01-28T01:28:34.411Z,18.70
2018-01-28T01:29:34.396Z,17.00
2018-01-28T01:30:34.397Z,15.90
2018-01-28T01:31:34.365Z,18.50
2018-01-28T01:32:34.350Z,15.00
2018-01-28T01:33:34.350Z,17.50
2018-01-28T01:34:34.336Z,18.20
2018-01-28T01:35:34.318Z,16.00
2018-01-28T01:36:34.312Z,15.80
2018-01-28T01:37:34.302Z,15.60
2018-01-28T01:38:34.286Z,17.80
2018-01-28T01:39:34.273Z,16.20
2018-01-28T01:40:34.262Z,18.90
2018-01-28T01:41:34.256Z,17.50
2018-01-28T01:42:34.241Z,16.50
2018-01-28T01:43:34.231Z,15.60
2018-01-28T01:44:34.232Z,14.80
2018-01-28T01:45:34.210Z,16.40
2018-01-28T01:46:34.200Z,15.30
2018-01-28T01:47:34.186Z,13.60
2018-01-28T01:48:34.193Z,15.90
2018-01-28T01:49:34.160Z,14.30
2018-01-28T01:50:34.159Z,14.90
2018-01-28T01:51:34.173Z,16.70
2018-01-28T01:52:34.138Z,16.70
2018-01-28T01:53:34.134Z,17.10
2018-01-28T01:54:34.124Z,17.40
2018-01-28T01:55:34.130Z,16.20
2018-01-28T01:56:34.137Z,14.90
2018-01-28T01:57:34.086Z,17.60
2018-01-28T01:58:34.062Z,14.50
2018-01-28T01:59:34.050Z,14.70
2018-01-28T02:00:34.113Z,12.90
2018-01-28T02:01:34.077Z,13.00
2018-01-28T02:02:34.030Z,14.60
2018-01-28T02:03:34.073Z,17.60
2018-01-28T02:04:34.069Z,14.70
2018-01-28T02:05:33.998Z,15.50
2018-01-28T02:06:34.030Z,14.20
2018-01-28T02:07:34.031Z,14.20
2018-01-28T02:08:34.002Z,13.00
2018-01-28T02:09:33.981Z,14.80
2018-01-28T02:10:33.922Z,15.60
2018-01-28T02:11:33.913Z,14.50
2018-01-28T02:12:33.922Z,15.10
2018-01-28T02:13:33.996Z,18.60
2018-01-28T02:14:33.999Z,16.60
2018-01-28T02:15:33.871Z,14.00
2018-01-28T02:16:33.858Z,15.40
2018-01-28T02:17:33.853Z,14.50
2018-01-28T02:18:33.861Z,15.50
2018-01-28T02:19:33.831Z,16.50
2018-01-28T02:20:33.830Z,14.80
2018-01-28T02:21:33.801Z,14.30
2018-01-28T02:22:33.794Z,15.10
2018-01-28T02:23:33.783Z,15.30
2018-01-28T02:24:33.813Z,13.70
2018-01-28T02:25:33.812Z,13.40
2018-01-28T02:26:33.767Z,13.70
2018-01-28T02:27:33.760Z,16.10
2018-01-28T02:28:33.748Z,16.20
2018-01-28T02:29:33.717Z,14.60
2018-01-28T02:30:33.708Z,14.00
2018-01-28T02:31:33.735Z,15.00
2018-01-28T02:32:33.734Z,15.20
2018-01-28T02:33:33.706Z,15.10
2018-01-28T02:34:33.675Z,15.20
2018-01-28T02:35:33.662Z,15.50
2018-01-28T02:36:33.662Z,16.80
2018-01-28T02:37:33.629Z,15.70
2018-01-28T02:38:33.613Z,15.00
2018-01-28T02:39:33.623Z,17.20
2018-01-28T02:40:33.607Z,17.90
2018-01-28T02:41:33.581Z,15.50
2018-01-28T02:42:33.582Z,15.10
2018-01-28T02:43:33.581Z,16.30
2018-01-28T02:44:33.555Z,15.30
2018-01-28T02:45:33.556Z,17.00
2018-01-28T02:46:33.526Z,15.40
2018-01-28T02:47:33.516Z,14.50
2018-01-28T02:48:33.502Z,14.80
2018-01-28T02:49:33.516Z,14.40
2018-01-28T02:50:33.498Z,14.70
2018-01-28T02:51:33.468Z,15.20
2018-01-28T02:52:33.482Z,15.80
2018-01-28T02:53:33.449Z,16.10
2018-01-28T02:54:33.445Z,16.30
2018-01-28T02:55:33.424Z,15.70
2018-01-28T02:56:33.420Z,17.40
2018-01-28T02:57:33.404Z,17.20
2018-01-28T02:58:33.387Z,18.50
2018-01-28T02:59:33.392Z,19.60
2018-01-28T03:00:33.376Z,19.70
2018-01-28T03:01:33.358Z,18.40
2018-01-28T03:02:33.351Z,17.40
2018-01-28T03:03:33.339Z,18.10
2018-01-28T03:04:33.322Z,18.90
2018-01-28T03:05:33.323Z,19.60
2018-01-28T03:06:33.301Z,20.30
2018-01-28T03:07:33.306Z,19.30
2018-01-28T03:08:33.284Z,22.00
2018-01-28T03:09:33.270Z,20.90
2018-01-28T03:10:33.258Z,20.10
2018-01-28T03:11:33.254Z,19.10
2018-01-28T03:12:33.239Z,18.60
2018-01-28T03:13:33.241Z,19.40
2018-01-28T03:14:33.215Z,19.40
2018-01-28T03:15:33.205Z,20.10
2018-01-28T03:16:33.193Z,19.00
2018-01-28T03:17:33.185Z,19.40
2018-01-28T03:18:33.194Z,20.10
2018-01-28T03:19:33.159Z,19.70
2018-01-28T03:20:33.150Z,18.80
2018-01-28T03:21:33.145Z,19.90
2018-01-28T03:22:33.137Z,20.10
2018-01-28T03:23:33.133Z,19.30
2018-01-28T03:24:33.128Z,18.70
2018-01-28T03:25:33.096Z,17.70
2018-01-28T03:26:33.086Z,15.30
2018-01-28T03:27:33.072Z,17.80
2018-01-28T03:28:33.067Z,17.80
2018-01-28T03:29:33.067Z,18.40
2018-01-28T03:30:33.053Z,20.50
2018-01-28T03:31:33.028Z,20.00
2018-01-28T03:32:33.033Z,23.30
2018-01-28T03:33:33.004Z,18.50
2018-01-28T03:34:32.996Z,16.20
2018-01-28T03:35:33.003Z,18.00
2018-01-28T03:36:32.981Z,18.60
2018-01-28T03:37:32.961Z,17.30
2018-01-28T03:38:32.954Z,18.40
2018-01-28T03:39:32.946Z,17.60
2018-01-28T03:40:32.945Z,18.40
2018-01-28T03:41:32.935Z,20.60
2018-01-28T03:42:32.909Z,20.20
2018-01-28T03:43:32.898Z,19.50
2018-01-28T03:44:32.886Z,15.80
2018-01-28T03:45:32.880Z,15.80
2018-01-28T03:46:32.870Z,19.50
2018-01-28T03:47:32.855Z,16.80
2018-01-28T03:48:32.852Z,17.20
2018-01-28T03:49:32.831Z,18.70
2018-01-28T03:50:32.816Z,14.80
2018-01-28T03:51:32.808Z,15.70
2018-01-28T03:52:32.814Z,15.70
2018-01-28T03:53:32.789Z,15.40
2018-01-28T03:54:32.780Z,19.80
2018-01-28T03:55:32.772Z,17.10
2018-01-28T03:56:32.751Z,15.80
2018-01-28T03:57:32.756Z,15.30
2018-01-28T03:58:32.748Z,16.50
2018-01-28T03:59:32.719Z,16.10
2018-01-28T04:00:32.713Z,15.80
2018-01-28T04:01:32.703Z,15.50
2018-01-28T04:02:32.702Z,16.90
2018-01-28T04:03:32.691Z,16.20
2018-01-28T04:04:32.681Z,13.80
2018-01-28T04:05:32.661Z,15.50
2018-01-28T04:06:32.648Z,16.20
2018-01-28T04:07:32.652Z,14.00
2018-01-28T04:08:32.625Z,15.50
2018-01-28T04:09:32.638Z,16.40
2018-01-28T04:10:32.640Z,15.00
2018-01-28T04:11:32.598Z,17.20
2018-01-28T04:12:32.582Z,15.60
2018-01-28T04:13:32.577Z,17.10
2018-01-28T04:14:32.562Z,16.20
2018-01-28T04:15:32.572Z,15.30
2018-01-28T04:16:32.545Z,15.20
2018-01-28T04:17:32.539Z,15.30
2018-01-28T04:18:32.591Z,17.00
2018-01-28T04:19:32.504Z,15.40
2018-01-28T04:20:32.498Z,16.10
2018-01-28T04:21:32.493Z,14.80
2018-01-28T04:22:32.478Z,14.80
2018-01-28T04:23:32.507Z,15.70
2018-01-28T04:24:32.459Z,15.30
2018-01-28T04:25:32.450Z,17.70
2018-01-28T04:26:32.474Z,19.10
2018-01-28T04:27:32.442Z,15.80
2018-01-28T04:28:32.412Z,16.10
2018-01-28T04:29:32.400Z,16.50
2018-01-28T04:30:32.388Z,17.30
2018-01-28T04:31:32.380Z,17.80
2018-01-28T04:32:32.376Z,18.00
2018-01-28T04:33:32.381Z,16.10
2018-01-28T04:34:32.344Z,15.40
2018-01-28T04:35:32.344Z,16.90
2018-01-28T04:38:05.286Z,16.90
2018-01-28T04:39:05.033Z,16.30
2018-01-28T04:40:59.541Z,15.20
2018-01-28T04:41:59.450Z,19.50
2018-01-28T04:43:54.457Z,17.90
2018-01-28T04:44:54.380Z,16.20
2018-01-28T04:45:54.396Z,18.80
2018-01-28T04:46:54.395Z,15.90
2018-01-28T04:47:54.344Z,16.60
2018-01-28T04:48:54.687Z,18.20
2018-01-28T04:49:54.341Z,15.50
2018-01-28T04:50:54.303Z,17.70
2018-01-28T04:51:54.306Z,16.70
2018-01-28T04:52:54.280Z,18.10
2018-01-28T04:53:54.274Z,17.10
2018-01-28T04:54:54.284Z,14.90
2018-01-28T04:55:54.291Z,15.80
2018-01-28T04:56:54.238Z,16.10
2018-01-28T04:57:54.235Z,16.50
2018-01-28T04:58:54.221Z,18.00
2018-01-28T04:59:54.229Z,16.90
2018-01-28T05:00:54.228Z,19.00
2018-01-28T05:01:54.192Z,16.20
2018-01-28T05:02:54.180Z,17.10
2018-01-28T05:03:54.187Z,16.90
2018-01-28T05:04:54.196Z,16.70
2018-01-28T05:05:54.154Z,18.50
2018-01-28T05:06:54.139Z,17.00
2018-01-28T05:07:54.121Z,16.40
2018-01-28T05:08:54.122Z,17.90
2018-01-28T05:09:54.117Z,18.50
2018-01-28T05:10:54.095Z,18.80
2018-01-28T05:11:54.090Z,19.30
2018-01-28T05:12:54.084Z,17.10
2018-01-28T05:13:54.064Z,18.30
2018-01-28T05:14:54.052Z,19.00
2018-01-28T05:15:54.056Z,17.50
2018-01-28T05:16:54.029Z,18.40
2018-01-28T05:17:54.020Z,20.30
2018-01-28T05:18:54.018Z,18.20
2018-01-28T05:19:53.993Z,21.90
2018-01-28T05:20:53.993Z,22.50
2018-01-28T05:21:53.982Z,19.40
2018-01-28T05:22:53.997Z,22.40
2018-01-28T05:23:53.958Z,20.50
2018-01-28T05:24:53.960Z,22.00
2018-01-28T05:25:53.934Z,22.10
2018-01-28T05:26:53.968Z,21.80
2018-01-28T05:27:53.936Z,23.80
2018-01-28T05:28:53.912Z,26.40
2018-01-28T05:29:53.907Z,22.50
2018-01-28T05:30:53.883Z,22.90
2018-01-28T05:31:53.870Z,20.00
2018-01-28T05:32:53.867Z,21.30
2018-01-28T05:33:53.854Z,23.10
2018-01-28T05:34:53.847Z,25.60
2018-01-28T05:35:53.832Z,23.20
2018-01-28T05:36:53.822Z,24.00
2018-01-28T05:37:53.811Z,22.10
2018-01-28T05:38:53.803Z,25.10
2018-01-28T05:39:53.789Z,24.90
2018-01-28T05:40:53.774Z,26.80
2018-01-28T05:41:53.769Z,27.50
2018-01-28T05:42:53.761Z,26.10
2018-01-28T05:43:53.748Z,22.50
2018-01-28T05:44:53.738Z,27.70
2018-01-28T05:45:53.735Z,28.90
2018-01-28T05:46:53.719Z,30.90
2018-01-28T05:47:53.713Z,26.40
2018-01-28T05:48:53.726Z,28.60
2018-01-28T05:49:53.701Z,28.00
2018-01-28T05:50:53.680Z,27.50
2018-01-28T05:51:53.665Z,30.60
2018-01-28T05:52:53.683Z,28.70
2018-01-28T05:53:53.646Z,31.50
2018-01-28T05:54:53.640Z,31.60
2018-01-28T05:55:53.621Z,28.30
2018-01-28T05:56:53.608Z,29.70
2018-01-28T05:57:53.625Z,33.10
2018-01-28T05:58:53.592Z,28.60
2018-01-28T05:59:53.596Z,32.60
2018-01-28T06:00:53.568Z,29.60
2018-01-28T06:01:53.557Z,32.40
2018-01-28T06:02:53.570Z,33.30
2018-01-28T06:03:53.542Z,31.90
2018-01-28T06:04:53.535Z,30.30
2018-01-28T06:05:53.538Z,31.50
2018-01-28T06:06:53.525Z,30.60
2018-01-28T06:07:53.496Z,33.60
2018-01-28T06:08:53.503Z,33.10
2018-01-28T06:09:53.494Z,28.60
2018-01-28T06:10:53.472Z,33.30
2018-01-28T06:11:53.462Z,31.10
2018-01-28T06:12:53.461Z,35.90
2018-01-28T06:13:53.436Z,32.70
2018-01-28T06:14:53.427Z,31.40
2018-01-28T06:15:53.422Z,29.00
2018-01-28T06:16:53.411Z,29.30
2018-01-28T06:17:53.399Z,32.20
2018-01-28T06:18:53.389Z,33.00
2018-01-28T06:19:53.379Z,34.00
2018-01-28T06:20:53.361Z,36.80
2018-01-28T06:21:53.380Z,33.70
2018-01-28T06:22:53.347Z,34.10
2018-01-28T06:23:53.345Z,35.30
2018-01-28T06:24:53.321Z,34.40
2018-01-28T06:25:53.313Z,34.20
2018-01-28T06:26:53.311Z,30.70
2018-01-28T06:27:53.315Z,35.70
2018-01-28T06:28:53.283Z,32.90
2018-01-28T06:29:53.294Z,38.40
2018-01-28T06:30:53.265Z,36.00
2018-01-28T06:31:53.250Z,36.00
2018-01-28T06:32:53.244Z,43.20
2018-01-28T06:33:53.242Z,38.70
2018-01-28T06:34:53.221Z,34.60
2018-01-28T06:35:53.223Z,39.80
2018-01-28T06:36:53.195Z,36.70
2018-01-28T06:37:53.185Z,41.70
2018-01-28T06:38:53.191Z,46.60
2018-01-28T06:39:53.183Z,42.50
2018-01-28T06:40:53.172Z,40.60
2018-01-28T06:41:53.152Z,45.60
2018-01-28T06:42:53.134Z,42.40
2018-01-28T06:43:53.139Z,46.10
2018-01-28T06:44:53.134Z,48.20
2018-01-28T06:45:53.129Z,52.60
2018-01-28T06:46:53.098Z,42.80
2018-01-28T06:47:53.087Z,48.90
2018-01-28T06:48:53.081Z,48.10
2018-01-28T06:49:53.064Z,54.10
2018-01-28T06:50:53.087Z,49.80
2018-01-28T06:51:53.071Z,47.90
2018-01-28T06:52:53.038Z,54.20
2018-01-28T06:53:53.029Z,52.30
2018-01-28T06:54:53.017Z,53.30
2018-01-28T06:55:53.001Z,48.50
2018-01-28T06:56:53.009Z,51.30
2018-01-28T06:57:52.996Z,53.80
2018-01-28T06:58:52.973Z,54.80
2018-01-28T06:59:52.965Z,54.40
2018-01-28T07:00:52.955Z,59.10
2018-01-28T07:01:52.945Z,61.30
2018-01-28T07:02:52.937Z,55.60
2018-01-28T07:03:52.928Z,69.20
2018-01-28T07:04:52.915Z,56.60
2018-01-28T07:05:52.946Z,61.00
2018-01-28T07:06:52.895Z,60.50
2018-01-28T07:07:52.877Z,58.30
2018-01-28T07:08:52.903Z,63.40
2018-01-28T07:09:52.880Z,66.40
2018-01-28T07:10:52.860Z,56.30
2018-01-28T07:11:52.839Z,59.50
2018-01-28T07:12:52.829Z,61.00
2018-01-28T07:13:52.832Z,56.40
2018-01-28T07:14:52.822Z,63.20
2018-01-28T07:15:52.823Z,69.90
2018-01-28T07:16:52.811Z,55.30
2018-01-28T07:17:52.783Z,62.50
2018-01-28T07:18:52.770Z,61.50
2018-01-28T07:19:52.756Z,61.50
2018-01-28T07:20:52.750Z,55.70
2018-01-28T07:21:52.754Z,60.30
2018-01-28T07:22:52.738Z,59.30
2018-01-28T07:23:52.724Z,56.20
2018-01-28T07:24:52.709Z,57.70
2018-01-28T07:25:52.702Z,57.00
2018-01-28T07:26:52.689Z,50.00
2018-01-28T07:27:52.681Z,59.00
2018-01-28T07:28:52.694Z,56.80
2018-01-28T07:29:52.664Z,53.10
2018-01-28T07:30:52.649Z,60.70
2018-01-28T07:31:52.638Z,52.60
2018-01-28T07:32:52.624Z,52.60
2018-01-28T07:33:52.621Z,48.30
2018-01-28T07:34:52.614Z,46.70
2018-01-28T07:35:52.601Z,51.80
2018-01-28T07:36:52.597Z,47.10
2018-01-28T07:37:52.576Z,46.40
2018-01-28T07:38:52.566Z,50.30
2018-01-28T07:39:52.563Z,42.50
2018-01-28T07:40:52.552Z,38.50
2018-01-28T07:41:52.540Z,43.40
2018-01-28T07:42:52.532Z,38.40
2018-01-28T07:43:52.516Z,46.20
2018-01-28T07:44:52.509Z,42.90
2018-01-28T07:45:52.499Z,44.00
2018-01-28T07:46:52.498Z,43.60
2018-01-28T07:47:52.477Z,42.90
2018-01-28T07:48:52.464Z,43.20
2018-01-28T07:49:52.458Z,44.10
2018-01-28T07:50:52.450Z,46.40
2018-01-28T07:51:52.438Z,38.90
2018-01-28T07:52:52.432Z,47.70
2018-01-28T07:53:52.416Z,36.80
2018-01-28T07:54:52.408Z,40.70
2018-01-28T07:55:52.398Z,40.30
2018-01-28T07:56:52.386Z,37.60
2018-01-28T07:57:52.373Z,40.90
2018-01-28T07:58:52.372Z,39.20
2018-01-28T07:59:52.369Z,36.20
2018-01-28T08:00:52.350Z,44.80
2018-01-28T08:01:52.351Z,40.50
2018-01-28T08:02:52.330Z,34.10
2018-01-28T08:03:52.317Z,39.60
2018-01-28T08:04:52.316Z,33.80
2018-01-28T08:05:52.299Z,37.90
2018-01-28T08:06:52.288Z,41.00
2018-01-28T08:07:52.275Z,35.60
2018-01-28T08:08:52.271Z,32.90
2018-01-28T08:09:52.254Z,35.30
2018-01-28T08:10:52.248Z,36.60
2018-01-28T08:11:52.256Z,32.10
2018-01-28T08:12:52.227Z,43.30
2018-01-28T08:13:52.257Z,33.20
2018-01-28T08:14:52.230Z,52.30
2018-01-28T08:15:52.194Z,49.40
2018-01-28T08:16:52.208Z,33.40
2018-01-28T08:17:52.187Z,35.60
2018-01-28T08:18:52.170Z,34.70
2018-01-28T08:19:52.156Z,46.60
2018-01-28T08:20:52.145Z,46.00
2018-01-28T08:21:52.134Z,49.30
2018-01-28T08:22:52.135Z,64.20
2018-01-28T08:23:52.127Z,71.60
2018-01-28T08:24:52.127Z,37.00
2018-01-28T08:25:52.239Z,58.10
2018-01-28T08:26:52.091Z,66.00
2018-01-28T08:27:52.086Z,44.70
2018-01-28T08:28:52.072Z,83.90
2018-01-28T08:29:52.083Z,100.10
2018-01-28T08:30:52.090Z,54.20
2018-01-28T08:31:52.059Z,75.00
2018-01-28T08:32:52.036Z,73.40
2018-01-28T08:33:52.030Z,51.30
2018-01-28T08:34:52.011Z,65.80
2018-01-28T08:35:52.016Z,45.70
2018-01-28T08:36:52.012Z,35.50
2018-01-28T08:37:51.983Z,40.40
2018-01-28T08:38:51.978Z,35.40
2018-01-28T08:39:51.971Z,38.80
2018-01-28T08:40:51.954Z,33.40
2018-01-28T08:41:51.942Z,33.70
2018-01-28T08:42:51.941Z,32.80
2018-01-28T08:43:51.944Z,36.10
2018-01-28T08:44:51.910Z,31.60
2018-01-28T08:45:51.907Z,33.10
2018-01-28T08:46:51.890Z,32.40
2018-01-28T08:47:51.889Z,33.40
2018-01-28T08:48:51.928Z,32.70
2018-01-28T08:49:51.878Z,33.40
2018-01-28T08:50:51.853Z,32.20
2018-01-28T08:51:51.848Z,34.70
2018-01-28T08:52:51.829Z,33.50
2018-01-28T08:53:51.825Z,34.30
2018-01-28T08:54:51.836Z,34.10
2018-01-28T08:55:51.833Z,37.00
2018-01-28T08:56:51.801Z,38.20
2018-01-28T08:57:51.787Z,35.30
2018-01-28T08:58:51.778Z,41.10
2018-01-28T08:59:51.785Z,34.70
2018-01-28T09:00:51.777Z,39.50
2018-01-28T09:01:51.747Z,36.20
2018-01-28T09:02:51.752Z,37.60
2018-01-28T09:03:51.729Z,36.70
2018-01-28T09:04:51.720Z,34.90
2018-01-28T09:05:51.709Z,37.60
2018-01-28T09:06:51.698Z,36.70
2018-01-28T09:07:51.717Z,42.10
2018-01-28T09:08:51.687Z,41.60
2018-01-28T09:09:51.720Z,39.70
2018-01-28T09:10:51.664Z,42.10
2018-01-28T09:11:51.648Z,35.60
2018-01-28T09:12:51.643Z,36.40
2018-01-28T09:13:51.653Z,42.80
2018-01-28T09:14:51.620Z,40.00
2018-01-28T09:15:51.611Z,44.60
2018-01-28T09:16:51.600Z,47.40
2018-01-28T09:17:51.592Z,45.00
2018-01-28T09:18:51.591Z,45.30
2018-01-28T09:19:51.572Z,42.00
2018-01-28T09:20:51.598Z,46.20
2018-01-28T09:21:51.573Z,47.50
2018-01-28T09:22:51.547Z,46.40
2018-01-28T09:23:51.535Z,45.30
2018-01-28T09:24:51.524Z,47.40
2018-01-28T09:25:51.532Z,49.20
2018-01-28T09:26:51.561Z,46.50
2018-01-28T09:27:51.499Z,50.70
2018-01-28T09:28:51.487Z,46.30
2018-01-28T09:29:51.477Z,57.40
2018-01-28T09:30:51.476Z,52.40
2018-01-28T09:31:51.459Z,47.70
2018-01-28T09:32:51.460Z,49.20
2018-01-28T09:33:51.438Z,53.60
2018-01-28T09:34:51.433Z,49.70
2018-01-28T09:35:51.421Z,53.20
2018-01-28T09:36:51.414Z,57.90
2018-01-28T09:37:51.419Z,52.60
2018-01-28T09:38:51.399Z,51.60
2018-01-28T09:39:51.385Z,61.00
2018-01-28T09:40:51.393Z,57.10
2018-01-28T09:41:51.420Z,56.40
2018-01-28T09:42:51.381Z,57.10
2018-01-28T09:43:51.367Z,58.30
2018-01-28T09:44:51.376Z,56.60
2018-01-28T09:45:51.325Z,58.90
2018-01-28T09:46:51.326Z,62.70
2018-01-28T09:47:51.303Z,60.70
2018-01-28T09:48:51.317Z,65.10
2018-01-28T09:49:51.305Z,60.50
2018-01-28T09:50:51.289Z,65.20
2018-01-28T09:51:51.316Z,55.90
2018-01-28T09:52:51.268Z,61.60
2018-01-28T09:53:51.273Z,54.30
2018-01-28T09:54:51.273Z,64.10
2018-01-28T09:55:51.305Z,62.70
2018-01-28T09:56:51.318Z,57.60
2018-01-28T09:57:51.287Z,61.40
2018-01-28T09:58:51.254Z,60.00
2018-01-28T09:59:51.225Z,61.20
2018-01-28T10:00:51.181Z,62.20
2018-01-28T10:01:51.266Z,64.90
2018-01-28T10:02:51.180Z,58.90
2018-01-28T10:03:51.251Z,63.90
2018-01-28T10:04:51.142Z,65.50
2018-01-28T10:05:51.135Z,54.70
2018-01-28T10:06:51.127Z,63.70
2018-01-28T10:07:51.141Z,58.90
2018-01-28T10:08:51.140Z,63.00
2018-01-28T10:09:51.107Z,61.80
2018-01-28T10:10:51.121Z,62.10
2018-01-28T10:11:51.089Z,66.60
2018-01-28T10:12:51.083Z,64.00
2018-01-28T10:13:51.100Z,61.70
2018-01-28T10:14:51.106Z,60.10
2018-01-28T10:15:51.061Z,62.70
2018-01-28T10:16:51.049Z,62.30
2018-01-28T10:17:51.096Z,54.80
2018-01-28T10:18:51.023Z,59.30
2018-01-28T10:19:51.008Z,55.90
2018-01-28T10:20:51.026Z,55.00
2018-01-28T10:21:50.994Z,61.90
2018-01-28T10:22:50.981Z,61.00
2018-01-28T10:23:50.970Z,57.20
2018-01-28T10:24:50.962Z,54.20
2018-01-28T10:25:50.949Z,57.90
2018-01-28T10:26:50.939Z,54.50
2018-01-28T10:27:50.932Z,52.70
2018-01-28T10:28:50.964Z,57.10
2018-01-28T10:29:50.923Z,58.80
2018-01-28T10:30:50.931Z,56.40
2018-01-28T10:31:50.927Z,51.90
2018-01-28T10:32:50.895Z,62.90
2018-01-28T10:33:50.942Z,56.50
2018-01-28T10:34:50.894Z,53.90
2018-01-28T10:35:50.861Z,56.70
2018-01-28T10:36:50.844Z,49.40
2018-01-28T10:37:50.841Z,60.70
2018-01-28T10:38:50.830Z,54.40
2018-01-28T10:39:50.823Z,55.50
2018-01-28T10:40:50.808Z,53.60
2018-01-28T10:41:50.815Z,50.90
2018-01-28T10:42:50.793Z,52.20
2018-01-28T10:43:50.789Z,52.20
2018-01-28T10:44:50.773Z,55.70
2018-01-28T10:45:50.770Z,56.80
2018-01-28T10:46:50.803Z,58.70
2018-01-28T10:47:50.746Z,51.80
2018-01-28T10:48:50.753Z,57.90
2018-01-28T10:49:50.731Z,53.20
2018-01-28T10:50:50.729Z,55.00
2018-01-28T10:51:50.724Z,53.00
2018-01-28T10:52:50.786Z,58.80
2018-01-28T10:53:50.705Z,50.90
2018-01-28T10:54:50.756Z,55.10
2018-01-28T10:55:50.728Z,52.50
2018-01-28T10:56:50.668Z,43.40
2018-01-28T10:57:50.728Z,52.50
2018-01-28T10:58:50.644Z,48.00
2018-01-28T10:59:50.635Z,51.50
2018-01-28T11:00:50.631Z,52.50
2018-01-28T11:01:50.622Z,47.10
2018-01-28T11:02:50.636Z,51.80
2018-01-28T11:03:50.597Z,47.60
2018-01-28T11:04:50.605Z,47.80
2018-01-28T11:05:50.579Z,43.10
2018-01-28T11:06:50.569Z,49.30
2018-01-28T11:07:50.644Z,45.80
2018-01-28T11:08:50.552Z,49.20
2018-01-28T11:09:50.549Z,41.80
2018-01-28T11:10:50.538Z,47.10
2018-01-28T11:11:50.525Z,44.00
2018-01-28T11:12:50.513Z,41.70
2018-01-28T11:13:50.537Z,45.80
2018-01-28T11:14:50.502Z,42.30
2018-01-28T11:15:50.508Z,47.20
2018-01-28T11:16:50.477Z,46.60
2018-01-28T11:17:50.520Z,42.70
2018-01-28T11:18:50.459Z,44.40
2018-01-28T11:19:50.453Z,39.40
2018-01-28T11:20:50.446Z,40.60
2018-01-28T11:21:50.442Z,41.70
2018-01-28T11:22:50.436Z,41.50
2018-01-28T11:23:50.459Z,42.60
2018-01-28T11:24:50.432Z,41.60
2018-01-28T11:25:50.405Z,37.70
2018-01-28T11:26:50.391Z,35.50
2018-01-28T11:27:50.395Z,33.00
2018-01-28T11:28:50.401Z,35.80
2018-01-28T11:29:50.362Z,42.70
2018-01-28T11:30:50.350Z,39.80
2018-01-28T11:31:50.358Z,39.00
2018-01-28T11:32:50.381Z,39.90
2018-01-28T11:33:50.337Z,36.80
2018-01-28T11:34:50.327Z,41.70
2018-01-28T11:35:50.307Z,40.70
2018-01-28T11:36:50.297Z,38.10
2018-01-28T11:37:50.288Z,38.40
2018-01-28T11:38:50.284Z,35.20
2018-01-28T11:39:50.284Z,40.50
2018-01-28T11:40:50.282Z,39.10
2018-01-28T11:41:50.278Z,34.30
2018-01-28T11:42:50.259Z,39.40
2018-01-28T11:43:50.259Z,38.30
2018-01-28T11:44:50.333Z,39.70
2018-01-28T11:45:50.242Z,33.90
2018-01-28T11:46:50.220Z,34.00
2018-01-28T11:47:50.205Z,32.90
2018-01-28T11:48:50.221Z,36.30
2018-01-28T11:49:50.202Z,37.40
2018-01-28T11:50:50.179Z,36.20
2018-01-28T11:51:50.184Z,37.30
2018-01-28T11:52:50.176Z,41.80
2018-01-28T11:53:50.175Z,32.80
2018-01-28T11:54:50.146Z,35.80
2018-01-28T11:55:50.174Z,33.90
2018-01-28T11:56:50.124Z,38.10
2018-01-28T11:57:50.310Z,32.90
2018-01-28T11:58:50.108Z,35.70
2018-01-28T11:59:50.145Z,35.30
2018-01-28T12:00:50.136Z,36.20
2018-01-28T12:01:50.081Z,35.10
2018-01-28T12:02:50.074Z,35.70
2018-01-28T12:03:50.078Z,33.30
2018-01-28T12:04:50.081Z,34.60
2018-01-28T12:05:50.058Z,35.70
2018-01-28T12:06:50.055Z,32.20
2018-01-28T12:07:50.032Z,30.80
2018-01-28T12:08:50.024Z,36.10
2018-01-28T12:09:50.022Z,34.30
2018-01-28T12:10:50.001Z,33.60
2018-01-28T12:11:49.998Z,31.20
2018-01-28T12:12:49.987Z,35.20
2018-01-28T12:13:49.979Z,34.50
2018-01-28T12:14:49.972Z,30.70
2018-01-28T12:15:49.957Z,31.60
2018-01-28T12:16:49.959Z,32.10
2018-01-28T12:17:49.945Z,30.60
2018-01-28T12:18:49.935Z,30.10
2018-01-28T12:19:49.941Z,34.00
2018-01-28T12:20:51.054Z,32.70
2018-01-28T12:21:49.945Z,33.40
2018-01-28T12:22:50.113Z,31.70
2018-01-28T12:23:49.950Z,28.50
2018-01-28T12:24:49.885Z,34.90
2018-01-28T12:25:50.426Z,37.50
2018-01-28T12:26:49.871Z,30.10
2018-01-28T12:27:49.876Z,32.40
2018-01-28T12:28:49.849Z,36.50
2018-01-28T12:29:49.842Z,32.80
2018-01-28T12:30:49.829Z,36.10
2018-01-28T12:31:49.832Z,34.30
2018-01-28T12:32:49.812Z,31.10
2018-01-28T12:33:49.805Z,36.40
2018-01-28T12:34:49.802Z,30.50
2018-01-28T12:35:49.790Z,29.70
2018-01-28T12:36:49.789Z,31.20
2018-01-28T12:37:49.773Z,33.40
2018-01-28T12:38:49.772Z,32.10
2018-01-28T12:39:49.753Z,35.90
2018-01-28T12:40:49.750Z,31.40
2018-01-28T12:41:49.752Z,34.00
2018-01-28T12:42:49.731Z,30.90
2018-01-28T12:43:49.744Z,26.40
2018-01-28T12:44:49.726Z,30.70
2018-01-28T12:45:49.714Z,30.70
2018-01-28T12:46:49.694Z,33.30
2018-01-28T12:47:54.542Z,30.40
2018-01-28T12:48:49.687Z,30.30
2018-01-28T12:49:49.669Z,30.40
2018-01-28T12:50:49.677Z,33.50
2018-01-28T12:51:49.662Z,27.10
2018-01-28T12:52:49.666Z,30.00
2018-01-28T12:53:49.653Z,33.10
2018-01-28T12:54:49.655Z,31.80
2018-01-28T12:55:49.620Z,31.10